Weather at Port Carling/Butterfly Lake Seaplane Base

Public forecast

Using degrees Celsius for public forecast. Weather courtesy of forecast.io.

Closest aviation weather report (METAR) to Port Carling/Butterfly Lake Seaplane Base

Closest report is Muskoka Airport, 15.6 nm (28.9 km) ESE. Retrieved 2021/01/19 04:00 UTC (31 minutes ago):

CYQA 190400Z AUTO 00000KT 9SM -SN BKN049 OVC065 M12/M14 A2986 RMK SLP137

Closest aviation forecast (TAF) to Port Carling/Butterfly Lake Seaplane Base

Forecast is more than 6 hours old.

Closest forecast is Muskoka Airport, 15.6 nm (28.9 km) ESE. Retrieved 2021/01/18 20:00 UTC (9 hours ago):

TAF CYQA 181938Z 1820/1903 VRB03KT P6SM SCT012 TEMPO 1820/1903 BKN012 RMK FCST BASED ON AUTO OBS NXT FCST WILL BE ISSUED AT 191245Z